Terminal Aerodrome Forecast
Issued by NWS Tulsa, OK

Home | Current Version | Previous Version | Text Only | Print | Product List | Glossary On
Versions: 1 2 3 4 5 6 7 8 9 10 11 12 13
000
FTUS44 KTSA 031722
TAFFSM
TAF
KFSM 031722Z 0318/0418 08010KT P6SM OVC070
      TEMPO 0319/0320 4SM -RA BKN025
     FM032000 08006KT 4SM -RA BR OVC020
     FM040000 08008KT 2SM -RA BR OVC007
     FM041500 08003KT 3SM -RA BR BKN010=

USA.gov is the U.S. government's official web portal to all federal, state and local government web resources and services.